Time;durP1;ratioP1;P1;durP2;ratioP2;P2;SDS_P1;SDS_P2;PMS_P1;PMS_P2;Temp;Humidity;BMP_temperature;BMP_pressure;BME280_temperature;BME280_humidity;BME280_pressure;Samples;Min_cycle;Max_cycle;Signal;HPM_P1;HPM_P2
2022/09/10 00:02:11;;;;;;;7.35;3.55;;;;;;;10.35;83.36;100297.75;1820062;78;21028;-75
2022/09/10 00:04:38;;;;;;;6.15;3.50;;;;;;;10.29;84.03;100294.81;1820593;77;21755;-74
2022/09/10 00:07:05;;;;;;;7.50;3.85;;;;;;;10.36;84.07;100302.05;1820763;78;20949;-75
2022/09/10 00:09:31;;;;;;;5.12;3.40;;;;;;;10.35;84.64;100289.78;1820111;77;21064;-71
2022/09/10 00:11:58;;;;;;;5.92;3.60;;;;;;;10.29;84.37;100295.64;1816612;77;21003;-73
2022/09/10 00:14:24;;;;;;;6.25;3.67;;;;;;;10.24;85.04;100296.11;1819468;77;21193;-73
2022/09/10 00:16:51;;;;;;;7.05;4.03;;;;;;;10.30;84.94;100295.17;1819901;77;21531;-76
2022/09/10 00:19:18;;;;;;;7.20;2.90;;;;;;;10.39;84.74;100299.11;1811900;77;21045;-79
2022/09/10 00:21:44;;;;;;;5.50;3.33;;;;;;;10.39;84.71;100304.89;1808611;78;21002;-78
2022/09/10 00:24:11;;;;;;;5.67;3.45;;;;;;;10.36;84.86;100289.27;1821226;78;21104;-81
2022/09/10 00:26:39;;;;;;;5.45;3.30;;;;;;;10.29;84.87;100286.85;1802862;78;21052;-81
2022/09/10 00:29:08;;;;;;;5.10;2.83;;;;;;;10.33;84.57;100289.07;1820216;77;21126;-79
2022/09/10 00:31:34;;;;;;;5.30;3.42;;;;;;;10.42;84.39;100288.16;1802995;77;21578;-79
2022/09/10 00:34:01;;;;;;;6.37;3.70;;;;;;;10.40;84.58;100300.76;1806142;77;21130;-74
2022/09/10 00:36:31;;;;;;;4.83;3.27;;;;;;;10.34;84.98;100298.72;1819973;78;20976;-73
2022/09/10 00:39:06;;;;;;;6.15;3.45;;;;;;;10.30;85.44;100298.69;1818051;77;21021;-72
2022/09/10 00:41:32;;;;;;;4.75;3.30;;;;;;;10.38;85.39;100298.75;1791720;77;21154;-72
2022/09/10 00:44:02;;;;;;;4.40;3.17;;;;;;;10.38;85.37;100300.08;1811825;77;21056;-74
2022/09/10 00:46:42;;;;;;;4.50;2.77;;;;;;;10.31;85.95;100300.84;1820153;78;20993;-73
2022/09/10 00:49:16;;;;;;;3.05;2.35;;;;;;;10.23;86.40;100296.26;1811577;77;21012;-73
2022/09/10 00:51:43;;;;;;;3.80;3.05;;;;;;;10.28;86.77;100296.65;1816962;77;21508;-75
2022/09/10 00:54:09;;;;;;;5.72;3.50;;;;;;;10.38;86.86;100296.59;1791318;77;21207;-73
2022/09/10 00:56:38;;;;;;;4.58;3.27;;;;;;;10.33;87.05;100287.73;1814844;78;21029;-73
2022/09/10 00:59:07;;;;;;;5.83;3.00;;;;;;;10.27;87.41;100284.84;1819910;78;21169;-71
2022/09/10 01:01:34;;;;;;;6.00;2.77;;;;;;;10.30;87.77;100286.73;1819154;78;21028;-75
2022/09/10 01:04:01;;;;;;;5.25;3.30;;;;;;;10.40;87.72;100280.84;1819692;77;21002;-74
2022/09/10 01:06:28;;;;;;;5.50;3.67;;;;;;;10.36;87.90;100281.31;1801109;77;21142;-76
2022/09/10 01:08:55;;;;;;;4.53;3.50;;;;;;;10.28;88.23;100285.20;1816648;77;21037;-74
2022/09/10 01:12:18;;;;;;;4.30;2.60;;;;;;;10.29;88.49;100281.54;1818780;77;21026;-74
2022/09/10 01:15:19;;;;;;;3.27;2.83;;;;;;;10.39;88.50;100271.69;1794184;78;21002;-73
2022/09/10 01:18:21;;;;;;;4.72;3.22;;;;;;;10.34;88.85;100278.80;1807946;77;21033;-75
2022/09/10 01:20:59;;;;;;;3.27;2.52;;;;;;;10.25;89.16;100279.68;1818939;78;21114;-73
2022/09/10 01:23:40;;;;;;;5.75;3.37;;;;;;;10.28;89.30;100278.06;1819497;78;21040;-74
2022/09/10 01:26:48;;;;;;;6.65;3.22;;;;;;;10.29;89.26;100266.94;1773439;78;21012;-74
2022/09/10 01:29:20;;;;;;;3.72;2.87;;;;;;;10.19;89.59;100271.83;1819953;77;21174;-73
2022/09/10 01:32:01;;;;;;;3.58;2.83;;;;;;;10.20;89.94;100268.70;1818070;77;21009;-75
2022/09/10 01:34:48;;;;;;;4.25;2.92;;;;;;;10.28;90.06;100269.27;1821513;78;21806;-74
2022/09/10 01:37:23;;;;;;;7.12;3.27;;;;;;;10.26;90.37;100270.74;1822803;77;21020;-73
2022/09/10 01:39:50;;;;;;;3.77;2.90;;;;;;;10.18;90.58;100270.67;1804058;77;21295;-74
2022/09/10 01:42:17;;;;;;;5.85;3.00;;;;;;;10.26;90.75;100281.36;1795724;77;21057;-75
2022/09/10 01:44:49;;;;;;;4.47;3.50;;;;;;;10.34;90.76;100278.80;1792134;77;21021;-75
2022/09/10 01:47:56;;;;;;;4.45;3.22;;;;;;;10.33;90.70;100282.43;1814467;77;21526;-72
2022/09/10 01:50:42;;;;;;;4.12;2.98;;;;;;;10.29;91.04;100275.73;1823391;78;21004;-72
2022/09/10 01:53:33;;;;;;;5.35;3.33;;;;;;;10.40;90.83;100278.18;1815570;77;21013;-73
2022/09/10 01:56:41;;;;;;;3.83;3.05;;;;;;;10.42;90.74;100266.91;1822698;78;21009;-73
2022/09/10 01:59:26;;;;;;;3.58;2.72;;;;;;;10.34;90.93;100270.01;1791303;80;21567;-74
2022/09/10 02:02:00;;;;;;;4.50;3.25;;;;;;;10.37;90.85;100263.90;1816047;77;21104;-74
2022/09/10 02:04:28;;;;;;;4.08;2.85;;;;;;;10.41;91.02;100266.58;1823101;77;21009;-75
2022/09/10 02:06:55;;;;;;;4.83;2.80;;;;;;;10.36;91.24;100260.89;1798409;78;21032;-75
2022/09/10 02:09:21;;;;;;;3.58;2.80;;;;;;;10.31;91.37;100257.84;1791198;80;21056;-73
2022/09/10 02:11:52;;;;;;;4.70;3.25;;;;;;;10.38;91.27;100248.28;1808264;77;21083;-72
2022/09/10 02:14:29;;;;;;;6.05;3.20;;;;;;;10.39;91.61;100249.11;1761451;80;21155;-76
2022/09/10 02:16:58;;;;;;;4.20;3.02;;;;;;;10.31;92.15;100237.93;1800481;77;21061;-72
2022/09/10 02:19:26;;;;;;;2.72;2.40;;;;;;;10.33;92.35;100247.91;1793925;78;21045;-74
2022/09/10 02:21:55;;;;;;;5.17;3.33;;;;;;;10.40;91.97;100242.83;1823287;78;21082;-73
2022/09/10 02:24:24;;;;;;;3.90;2.95;;;;;;;10.34;92.12;100235.48;1795427;77;21028;-74
2022/09/10 02:26:50;;;;;;;4.90;2.98;;;;;;;10.27;92.54;100239.70;1808552;78;21631;-73
2022/09/10 02:29:18;;;;;;;3.75;2.90;;;;;;;10.31;92.55;100223.33;1823114;78;20994;-73
2022/09/10 02:31:46;;;;;;;6.08;3.12;;;;;;;10.36;92.42;100229.02;1823108;77;21049;-76
2022/09/10 02:34:14;;;;;;;4.65;3.12;;;;;;;10.31;92.56;100224.66;1823557;78;21006;-73
2022/09/10 02:36:43;;;;;;;4.67;3.17;;;;;;;10.26;92.85;100223.41;1822257;77;21540;-75
2022/09/10 02:39:09;;;;;;;3.02;2.72;;;;;;;10.33;92.60;100216.03;1821798;77;21220;-74
2022/09/10 02:41:39;;;;;;;3.85;3.45;;;;;;;10.32;92.79;100222.35;1822696;78;21045;-76
2022/09/10 02:44:06;;;;;;;3.98;2.90;;;;;;;10.24;93.04;100212.97;1822821;77;21060;-76
2022/09/10 02:46:33;;;;;;;3.77;2.75;;;;;;;10.26;93.01;100216.30;1822621;77;21490;-75
2022/09/10 02:48:59;;;;;;;4.37;2.98;;;;;;;10.31;93.05;100212.70;1823707;78;21564;-77
2022/09/10 02:51:28;;;;;;;5.00;3.10;;;;;;;10.27;93.35;100206.51;1793761;77;21204;-76
2022/09/10 02:53:55;;;;;;;4.87;2.70;;;;;;;10.20;93.66;100208.45;1786828;78;21076;-74
2022/09/10 02:56:22;;;;;;;3.75;2.95;;;;;;;10.27;93.47;100205.18;1823314;77;21020;-76
2022/09/10 02:58:49;;;;;;;3.72;3.02;;;;;;;10.32;93.33;100205.59;1823078;78;20998;-75
2022/09/10 03:01:18;;;;;;;3.05;2.58;;;;;;;10.26;93.56;100204.36;1810453;78;21063;-77
2022/09/10 03:03:51;;;;;;;4.85;3.10;;;;;;;10.23;93.97;100200.67;1791360;80;21172;-75
2022/09/10 03:06:18;;;;;;;4.83;3.35;;;;;;;10.29;93.67;100194.73;1810196;77;21037;-76
2022/09/10 03:08:46;;;;;;;4.42;2.85;;;;;;;10.28;93.75;100198.89;1823211;77;21053;-74
2022/09/10 03:11:15;;;;;;;4.30;3.37;;;;;;;10.24;94.09;100193.06;1823591;78;21029;-73
2022/09/10 03:13:44;;;;;;;3.05;2.65;;;;;;;10.34;93.99;100196.47;1814947;78;21037;-74
2022/09/10 03:16:12;;;;;;;3.77;3.08;;;;;;;10.36;94.05;100203.78;1799341;77;21540;-74
2022/09/10 03:18:40;;;;;;;4.03;3.00;;;;;;;10.31;94.43;100198.59;1792308;79;20971;-75
2022/09/10 03:21:19;;;;;;;5.30;3.60;;;;;;;10.37;94.35;100201.48;1791442;80;21104;-74
2022/09/10 03:23:48;;;;;;;3.17;2.62;;;;;;;10.47;94.32;100201.38;1790926;80;21024;-73
2022/09/10 03:26:17;;;;;;;4.25;3.02;;;;;;;10.48;94.47;100186.27;1814244;77;21084;-73
2022/09/10 03:28:44;;;;;;;3.67;2.55;;;;;;;10.43;94.64;100194.72;1816024;78;21545;-73
2022/09/10 03:31:13;;;;;;;3.17;2.72;;;;;;;10.51;94.54;100192.11;1816678;77;21039;-75
2022/09/10 03:33:41;;;;;;;4.42;3.12;;;;;;;10.56;94.37;100188.97;1812545;77;21017;-74
2022/09/10 03:36:08;;;;;;;4.55;3.55;;;;;;;10.55;94.50;100187.31;1822661;78;21080;-77
2022/09/10 03:38:37;;;;;;;4.62;3.40;;;;;;;10.56;94.75;100198.27;1822469;77;21053;-76
2022/09/10 03:41:04;;;;;;;4.00;3.27;;;;;;;10.59;94.75;100189.99;1794096;78;21516;-73
2022/09/10 03:43:30;;;;;;;3.47;2.70;;;;;;;10.59;94.83;100188.16;1795473;78;21609;-76
2022/09/10 03:45:57;;;;;;;3.85;3.00;;;;;;;10.61;94.66;100182.20;1814178;78;21470;-77
2022/09/10 03:48:24;;;;;;;3.80;2.72;;;;;;;10.64;94.76;100185.02;1812614;77;21076;-74
2022/09/10 03:50:50;;;;;;;4.85;2.95;;;;;;;10.60;95.00;100185.00;1823384;77;21049;-73
2022/09/10 03:53:17;;;;;;;4.22;3.30;;;;;;;10.69;94.88;100177.92;1823856;77;21188;-74
2022/09/10 03:55:47;;;;;;;3.25;2.83;;;;;;;10.73;94.96;100183.26;1816280;78;20993;-75
2022/09/10 03:58:15;;;;;;;3.05;2.75;;;;;;;10.77;94.94;100192.07;1811266;78;21470;-74
2022/09/10 04:00:42;;;;;;;4.40;3.22;;;;;;;10.81;94.62;100179.30;1811251;78;21088;-76
2022/09/10 04:03:09;;;;;;;4.67;2.45;;;;;;;10.81;94.74;100184.11;1753848;81;21068;-75
2022/09/10 04:05:39;;;;;;;4.08;3.20;;;;;;;10.84;94.68;100182.98;1751504;81;21205;-74
2022/09/10 04:08:06;;;;;;;4.33;3.22;;;;;;;10.85;94.54;100179.83;1751442;82;21519;-75
2022/09/10 04:10:33;;;;;;;4.75;3.22;;;;;;;10.84;94.47;100170.20;1754198;81;21042;-74
2022/09/10 04:12:59;;;;;;;4.22;2.87;;;;;;;10.84;94.71;100171.53;1765255;81;21077;-74
2022/09/10 04:15:27;;;;;;;3.33;2.87;;;;;;;10.84;94.81;100167.55;1768646;81;21018;-73
2022/09/10 04:17:54;;;;;;;3.58;2.95;;;;;;;10.87;94.65;100168.03;1749651;81;21153;-75
2022/09/10 04:20:24;;;;;;;4.12;2.85;;;;;;;10.85;94.72;100172.67;1753863;81;21054;-75
2022/09/10 04:22:53;;;;;;;3.12;2.52;;;;;;;10.87;94.87;100174.67;1783411;79;21054;-75
2022/09/10 04:25:20;;;;;;;4.75;3.10;;;;;;;10.90;94.92;100169.05;1783910;80;21183;-74
2022/09/10 04:27:48;;;;;;;3.58;2.70;;;;;;;10.94;94.97;100165.58;1784908;80;20999;-75
2022/09/10 04:30:16;;;;;;;3.10;2.80;;;;;;;10.96;95.09;100162.27;1784888;80;22028;-74
2022/09/10 04:32:44;;;;;;;5.62;2.85;;;;;;;11.01;94.71;100149.34;1784445;79;21051;-74
2022/09/10 04:35:12;;;;;;;3.90;2.58;;;;;;;10.97;94.60;100156.80;1777813;80;21004;-74
2022/09/10 04:37:38;;;;;;;3.05;2.75;;;;;;;10.95;94.69;100159.26;1783864;78;21042;-75
2022/09/10 04:40:08;;;;;;;3.40;3.10;;;;;;;10.96;94.53;100154.29;1789613;78;21007;-76
2022/09/10 04:42:37;;;;;;;4.83;2.98;;;;;;;10.92;94.73;100152.95;1785093;78;21312;-73
2022/09/10 04:45:05;;;;;;;3.10;2.80;;;;;;;10.92;94.82;100144.47;1789619;78;21034;-75
2022/09/10 04:47:33;;;;;;;2.90;2.60;;;;;;;10.90;95.03;100138.48;1790142;80;21067;-76
2022/09/10 04:50:00;;;;;;;3.20;2.70;;;;;;;10.92;95.00;100140.98;1789572;78;20998;-74
2022/09/10 04:52:28;;;;;;;3.65;2.65;;;;;;;10.92;94.82;100139.16;1790153;79;21036;-75
2022/09/10 04:54:56;;;;;;;3.27;2.83;;;;;;;10.90;95.09;100142.98;1789830;78;21563;-74
2022/09/10 04:57:24;;;;;;;3.40;2.50;;;;;;;10.87;95.06;100145.44;1789380;78;21006;-75
2022/09/10 04:59:54;;;;;;;4.62;2.92;;;;;;;10.87;95.01;100136.13;1789519;78;21073;-73
2022/09/10 05:02:22;;;;;;;3.17;2.37;;;;;;;10.86;95.16;100145.12;1756692;80;21059;-74
2022/09/10 05:04:49;;;;;;;3.45;2.30;;;;;;;10.86;95.15;100160.24;1756293;80;21034;-76
2022/09/10 05:07:16;;;;;;;2.40;2.20;;;;;;;10.85;95.11;100142.61;1756768;80;21220;-76
2022/09/10 05:09:42;;;;;;;4.70;2.40;;;;;;;10.86;95.47;100136.31;1764855;81;21066;-75
2022/09/10 05:12:11;;;;;;;3.02;2.72;;;;;;;10.87;95.75;100144.61;1786679;80;21013;-75
2022/09/10 05:14:38;;;;;;;3.35;2.20;;;;;;;10.92;95.73;100144.47;1765052;80;21012;-77
2022/09/10 05:17:04;;;;;;;2.40;2.02;;;;;;;10.94;95.53;100141.66;1787585;80;21013;-75
2022/09/10 05:19:31;;;;;;;3.83;2.30;;;;;;;10.96;95.57;100127.20;1776584;80;21781;-74
2022/09/10 05:22:00;;;;;;;2.25;2.05;;;;;;;10.95;95.60;100136.19;1786328;80;21014;-74
2022/09/10 05:24:26;;;;;;;2.27;2.05;;;;;;;10.97;95.71;100132.02;1760329;80;21072;-74
2022/09/10 05:26:53;;;;;;;2.80;2.30;;;;;;;11.01;95.71;100130.22;1787927;80;21056;-74
2022/09/10 05:29:20;;;;;;;2.70;2.10;;;;;;;11.00;94.93;100135.19;1787941;80;21029;-75
2022/09/10 05:31:48;;;;;;;2.62;2.08;;;;;;;10.95;95.21;100132.67;1784125;80;21185;-73
2022/09/10 05:34:15;;;;;;;2.42;2.12;;;;;;;10.95;95.37;100128.69;1774696;80;20977;-74
2022/09/10 05:36:42;;;;;;;2.70;2.08;;;;;;;10.96;95.59;100136.51;1741294;80;21048;-75
2022/09/10 05:39:10;;;;;;;2.35;2.08;;;;;;;11.00;95.74;100135.69;1766636;81;21035;-72
2022/09/10 05:41:36;;;;;;;2.90;2.50;;;;;;;11.02;95.71;100135.86;1767744;81;21012;-73
2022/09/10 05:44:04;;;;;;;3.35;2.30;;;;;;;11.05;95.84;100128.08;1740132;81;22207;-74
2022/09/10 05:46:31;;;;;;;2.33;1.90;;;;;;;11.08;95.61;100130.39;1768429;81;21620;-75
2022/09/10 05:49:00;;;;;;;2.08;1.87;;;;;;;11.08;95.52;100129.06;1767351;81;21048;-73
2022/09/10 05:51:28;;;;;;;2.83;1.70;;;;;;;11.08;95.33;100133.05;1738139;82;21104;-73
2022/09/10 05:53:56;;;;;;;2.35;1.72;;;;;;;11.05;95.36;100153.33;1763588;80;21123;-74
2022/09/10 05:56:24;;;;;;;2.30;1.85;;;;;;;11.06;94.78;100138.20;1756168;81;22171;-72
2022/09/10 05:58:51;;;;;;;1.90;1.62;;;;;;;11.03;94.97;100138.04;1768477;81;21060;-72
2022/09/10 06:01:18;;;;;;;1.60;1.50;;;;;;;11.04;95.34;100140.20;1760599;81;21048;-77
2022/09/10 06:03:49;;;;;;;3.08;2.00;;;;;;;11.05;95.05;100134.72;1755646;81;21059;-79
2022/09/10 06:06:18;;;;;;;2.17;1.90;;;;;;;10.99;95.47;100145.50;1765802;81;21048;-78
2022/09/10 06:08:52;;;;;;;1.70;1.60;;;;;;;10.99;95.14;100142.84;1767545;81;21021;-78
2022/09/10 06:11:21;;;;;;;2.50;2.17;;;;;;;10.98;94.82;100138.50;1760774;81;21524;-79
2022/09/10 06:13:49;;;;;;;2.20;1.82;;;;;;;10.92;95.10;100133.02;1762337;80;21111;-76
2022/09/10 06:16:19;;;;;;;3.80;2.17;;;;;;;10.93;95.34;100130.67;1731144;81;21154;-78
2022/09/10 06:18:45;;;;;;;2.40;1.87;;;;;;;10.91;95.09;100132.16;1745020;81;21735;-78
2022/09/10 06:21:16;;;;;;;2.62;1.95;;;;;;;10.89;95.30;100131.99;1759123;81;21088;-80
2022/09/10 06:23:45;;;;;;;3.10;2.33;;;;;;;10.93;95.44;100132.00;1768622;81;21037;-78
2022/09/10 06:26:17;;;;;;;2.25;2.00;;;;;;;10.95;95.48;100137.99;1768621;81;21049;-77
2022/09/10 06:28:44;;;;;;;2.22;2.02;;;;;;;10.94;95.59;100142.48;1768554;81;21056;-78
2022/09/10 06:31:15;;;;;;;2.98;2.67;;;;;;;10.95;95.84;100141.50;1758880;81;21001;-82
2022/09/10 06:33:40;;;;;;;3.12;2.20;;;;;;;10.89;96.25;100142.63;1748149;81;21858;-83
2022/09/10 06:36:08;;;;;;;3.40;2.47;;;;;;;10.90;96.40;100140.31;1725823;81;21624;-82
2022/09/10 06:38:35;;;;;;;2.70;2.50;;;;;;;10.89;96.64;100150.09;1735263;81;21001;-83
2022/09/10 06:41:07;;;;;;;2.70;2.42;;;;;;;10.86;96.53;100119.05;1741320;81;21062;-84
2022/09/10 06:43:35;;;;;;;3.60;2.80;;;;;;;10.84;96.41;100129.83;1737008;81;21473;-82
2022/09/10 06:46:15;;;;;;;3.08;2.80;;;;;;;10.81;96.81;100129.63;1723821;82;21850;-83
2022/09/10 06:48:52;;;;;;;2.85;2.50;;;;;;;10.81;96.89;100134.95;1723042;81;21053;-82
2022/09/10 06:51:20;;;;;;;2.60;2.40;;;;;;;10.82;96.48;100131.31;1724946;82;21052;-81
2022/09/10 06:53:49;;;;;;;3.30;2.80;;;;;;;10.77;96.38;100115.00;1694911;81;21009;-82
2022/09/10 06:56:18;;;;;;;3.00;2.70;;;;;;;10.74;96.31;100131.76;1746320;81;20985;-85
2022/09/10 06:58:45;;;;;;;2.70;2.40;;;;;;;10.70;96.29;100122.45;1725347;82;21836;-87
2022/09/10 07:01:16;;;;;;;3.05;2.77;;;;;;;10.66;96.51;100129.08;1748170;78;21041;-88
2022/09/10 07:03:45;;;;;;;5.58;3.72;;;;;;;10.69;96.54;100159.33;1747407;81;21044;-84
2022/09/10 07:06:14;;;;;;;3.87;3.10;;;;;;;10.60;95.45;100126.08;1749645;79;20973;-87
2022/09/10 07:08:41;;;;;;;3.58;3.25;;;;;;;10.51;96.20;100132.84;1753953;78;21006;-88
2022/09/10 07:11:12;;;;;;;3.33;3.02;;;;;;;10.50;96.17;100125.84;1684724;81;22707;-88
2022/09/10 07:13:39;;;;;;;3.92;3.52;;;;;;;10.51;96.41;100127.53;1723804;83;21097;-88
2022/09/10 07:16:08;;;;;;;3.85;3.45;;;;;;;10.50;96.42;100125.84;1733103;81;21096;-90
2022/09/10 07:18:35;;;;;;;5.80;3.80;;;;;;;10.52;96.58;100124.69;1741672;81;21007;-86
2022/09/10 07:21:10;;;;;;;4.22;3.83;;;;;;;10.55;96.58;100128.87;1734854;81;21462;-88
2022/09/10 07:23:39;;;;;;;4.08;3.75;;;;;;;10.49;96.67;100130.81;1735664;79;21153;-89
2022/09/10 07:26:15;;;;;;;4.33;3.92;;;;;;;10.52;96.24;100126.52;1719912;82;21084;-86
2022/09/10 07:28:45;;;;;;;4.30;3.70;;;;;;;10.49;96.02;100134.80;1750475;82;21500;-81
2022/09/10 07:31:21;;;;;;;4.17;3.58;;;;;;;10.44;96.37;100128.64;1735408;82;20992;-80
2022/09/10 07:33:49;;;;;;;4.22;3.83;;;;;;;10.48;96.47;100135.80;1747487;81;21025;-81
2022/09/10 07:36:17;;;;;;;3.80;3.50;;;;;;;10.51;96.39;100131.52;1760193;79;21206;-82
2022/09/10 07:38:53;;;;;;;3.70;3.27;;;;;;;10.52;96.01;100144.61;1795701;78;20969;-78
2022/09/10 07:41:20;;;;;;;4.78;4.35;;;;;;;10.53;96.09;100130.36;1798617;77;21673;-82
2022/09/10 07:43:54;;;;;;;4.65;4.25;;;;;;;10.54;96.29;100126.69;1796730;78;21072;-80
2022/09/10 07:46:24;;;;;;;4.25;3.85;;;;;;;10.58;96.16;100123.22;1807317;77;22059;-82
2022/09/10 07:48:58;;;;;;;6.03;4.70;;;;;;;10.59;96.05;100119.09;1820194;78;21097;-82
2022/09/10 07:51:28;;;;;;;4.90;4.42;;;;;;;10.57;96.53;100132.20;1822971;78;20982;-81
2022/09/10 07:53:57;;;;;;;4.78;4.37;;;;;;;10.63;95.96;100132.89;1792607;78;21049;-81
2022/09/10 07:56:26;;;;;;;4.62;4.22;;;;;;;10.57;95.49;100125.56;1821863;78;21089;-80
2022/09/10 07:58:56;;;;;;;4.80;4.40;;;;;;;10.46;95.55;100122.67;1822139;78;21094;-81
2022/09/10 08:01:22;;;;;;;4.67;4.22;;;;;;;10.48;95.67;100117.20;1822025;78;21121;-80
2022/09/10 08:03:49;;;;;;;5.00;4.60;;;;;;;10.48;95.20;100122.02;1815906;78;20927;-81
2022/09/10 08:06:17;;;;;;;4.53;4.12;;;;;;;10.41;95.63;100112.53;1791014;77;21157;-82
2022/09/10 08:08:44;;;;;;;5.22;4.20;;;;;;;10.43;95.83;100103.09;1797071;78;21015;-81
2022/09/10 08:11:16;;;;;;;4.53;4.12;;;;;;;10.47;95.61;100112.88;1820519;78;21532;-82
2022/09/10 08:13:49;;;;;;;5.40;4.90;;;;;;;10.47;95.00;100120.84;1819261;77;21324;-81
2022/09/10 08:16:19;;;;;;;4.37;3.98;;;;;;;10.41;95.41;100115.66;1788907;78;20997;-80
2022/09/10 08:18:46;;;;;;;4.60;4.20;;;;;;;10.40;95.47;100113.51;1820989;78;21570;-81
2022/09/10 08:21:13;;;;;;;4.20;3.75;;;;;;;10.37;95.32;100115.17;1820289;78;20986;-80
2022/09/10 08:23:42;;;;;;;5.55;4.33;;;;;;;10.30;95.11;100112.80;1819697;77;20989;-80
2022/09/10 08:26:09;;;;;;;6.30;4.37;;;;;;;10.31;95.34;100114.95;1820660;78;21088;-81
2022/09/10 08:28:36;;;;;;;5.37;4.87;;;;;;;10.27;95.48;100129.50;1820496;78;21012;-81
2022/09/10 08:31:07;;;;;;;5.30;4.80;;;;;;;10.27;95.37;100109.59;1816971;78;20995;-79
2022/09/10 08:33:39;;;;;;;4.97;4.47;;;;;;;10.30;95.77;100115.92;1803988;77;21013;-80
2022/09/10 08:36:07;;;;;;;5.50;5.00;;;;;;;10.30;95.82;100101.32;1821268;78;21541;-80
2022/09/10 08:38:40;;;;;;;4.67;4.17;;;;;;;10.35;95.92;100101.69;1796655;78;21211;-81
2022/09/10 08:41:20;;;;;;;5.22;4.72;;;;;;;10.40;95.60;100100.23;1824193;78;21033;-81
2022/09/10 08:43:59;;;;;;;5.53;5.03;;;;;;;10.42;95.71;100087.63;1797105;78;21005;-81
2022/09/10 08:46:29;;;;;;;5.33;4.83;;;;;;;10.42;95.64;100090.28;1824268;78;21030;-80
2022/09/10 08:49:17;;;;;;;4.60;4.20;;;;;;;10.41;95.00;100095.74;1826120;78;21001;-81
2022/09/10 08:52:03;;;;;;;5.65;5.10;;;;;;;10.38;94.68;100088.11;1828076;78;21101;-80
2022/09/10 08:54:37;;;;;;;5.28;4.45;;;;;;;10.36;94.92;100094.90;1825664;78;21502;-78
2022/09/10 08:57:03;;;;;;;;;;;;;;;10.35;94.90;100105.20;1826280;78;21493;-79
2022/09/10 08:59:34;;;;;;;5.70;5.12;;;;;;;10.30;94.90;100097.34;1823474;77;20503;-79
2022/09/10 09:02:25;;;;;;;5.42;4.70;;;;;;;10.28;95.38;100082.06;1824150;78;21029;-81
2022/09/10 09:05:04;;;;;;;5.95;5.45;;;;;;;10.31;95.59;100089.22;1825204;78;21948;-79
2022/09/10 09:07:38;;;;;;;5.00;4.50;;;;;;;10.36;95.54;100082.95;1823801;78;21010;-80
2022/09/10 09:10:25;;;;;;;;;;;;;;;10.39;94.83;100076.01;1827035;78;21474;-82
2022/09/10 09:13:06;;;;;;;4.65;4.25;;;;;;;10.45;94.97;100080.33;1824043;78;20165;-78
2022/09/10 09:15:46;;;;;;;5.60;5.08;;;;;;;10.41;95.05;100075.34;1823846;78;21045;-81
2022/09/10 09:18:37;;;;;;;5.28;4.78;;;;;;;10.40;94.82;100079.48;1824019;78;21134;-80
2022/09/10 09:21:17;;;;;;;5.60;4.80;;;;;;;10.43;94.71;100085.31;1823837;78;21071;-81
2022/09/10 09:23:55;;;;;;;4.70;4.20;;;;;;;10.39;94.51;100070.69;1820347;78;21962;-81
2022/09/10 09:26:35;;;;;;;5.42;4.92;;;;;;;10.34;95.14;100070.83;1821665;78;21013;-79
2022/09/10 09:29:19;;;;;;;5.22;4.70;;;;;;;10.39;94.72;100072.02;1798131;78;21047;-78
2022/09/10 09:31:49;;;;;;;4.97;4.47;;;;;;;10.38;94.92;100074.83;1823226;78;21172;-82
2022/09/10 09:34:31;;;;;;;6.60;6.00;;;;;;;10.40;94.76;100068.36;1824166;78;21013;-82
2022/09/10 09:37:04;;;;;;;5.05;4.65;;;;;;;10.42;94.81;100066.38;1742238;78;20988;-78
2022/09/10 09:40:05;;;;;;;6.15;5.55;;;;;;;10.39;95.16;100068.03;1753619;80;21049;-80
2022/09/10 09:43:21;;;;;;;6.47;5.58;;;;;;;10.47;94.94;100065.06;1782934;78;21029;-79
2022/09/10 09:45:46;;;;;;;5.83;5.33;;;;;;;10.51;94.87;100064.60;1791706;80;21534;-80
2022/09/10 09:48:16;;;;;;;6.97;5.97;;;;;;;10.56;94.70;100068.91;1793322;80;21002;-80
2022/09/10 09:50:49;;;;;;;6.05;5.45;;;;;;;10.54;94.35;100054.14;1795516;80;21014;-79
2022/09/10 09:53:25;;;;;;;5.83;5.22;;;;;;;10.55;94.39;100053.98;1792873;78;21057;-81
2022/09/10 09:55:57;;;;;;;5.42;4.92;;;;;;;10.53;94.60;100069.25;1791649;80;20998;-79
2022/09/10 09:58:27;;;;;;;5.97;5.22;;;;;;;10.52;94.15;100056.95;1791055;80;21116;-82
2022/09/10 10:01:07;;;;;;;6.55;5.22;;;;;;;10.48;94.67;100053.45;1790664;80;20991;-81
2022/09/10 10:03:52;;;;;;;5.55;5.08;;;;;;;10.48;94.98;100059.59;1790292;78;21494;-80
2022/09/10 10:06:23;;;;;;;6.65;5.97;;;;;;;10.51;95.31;100050.50;1778887;80;21050;-81
2022/09/10 10:09:01;;;;;;;5.80;5.30;;;;;;;10.45;95.55;100051.96;1790988;80;21589;-77
2022/09/10 10:11:41;;;;;;;6.42;5.37;;;;;;;10.52;95.52;100045.50;1791631;78;21617;-78
2022/09/10 10:14:23;;;;;;;5.12;4.70;;;;;;;10.58;95.58;100044.86;1791358;80;21014;-81
2022/09/10 10:16:53;;;;;;;6.90;5.90;;;;;;;10.60;95.43;100038.88;1775027;80;21028;-81
2022/09/10 10:19:37;;;;;;;5.62;4.65;;;;;;;10.62;95.48;100036.89;1791166;80;20999;-81
2022/09/10 10:22:21;;;;;;;5.75;4.90;;;;;;;10.66;95.35;100040.06;1766913;80;21073;-80
2022/09/10 10:24:49;;;;;;;5.05;4.62;;;;;;;10.67;95.45;100036.43;1723394;81;21155;-83
2022/09/10 10:27:37;;;;;;;5.33;4.87;;;;;;;10.72;95.36;100025.66;1725975;83;21245;-80
2022/09/10 10:30:15;;;;;;;5.28;4.78;;;;;;;10.74;95.43;100026.32;1703232;83;21009;-81
2022/09/10 10:32:58;;;;;;;6.17;4.72;;;;;;;10.75;95.44;100027.97;1712880;81;21035;-80
2022/09/10 10:36:03;;;;;;;5.62;5.12;;;;;;;10.78;95.19;100020.19;1698117;84;21540;-82
2022/09/10 10:38:35;;;;;;;5.80;5.15;;;;;;;10.73;94.63;100016.67;1692100;83;21161;-81
2022/09/10 10:41:34;;;;;;;4.83;4.37;;;;;;;10.63;95.41;100014.66;1768675;80;21038;-80
2022/09/10 10:44:31;;;;;;;5.75;5.15;;;;;;;10.67;95.51;100018.66;1775256;80;21013;-80
2022/09/10 10:47:37;;;;;;;5.28;4.78;;;;;;;10.66;95.32;100010.33;1798350;79;21053;-81
2022/09/10 10:50:37;;;;;;;5.53;4.92;;;;;;;10.63;95.37;100002.70;1818634;79;21017;-80
2022/09/10 10:53:44;;;;;;;6.17;4.37;;;;;;;10.62;95.83;100003.69;1815550;79;21748;-82
2022/09/10 10:56:40;;;;;;;5.35;4.55;;;;;;;10.65;95.83;100000.72;1816494;79;21018;-80
2022/09/10 11:00:00;;;;;;;4.92;4.53;;;;;;;10.63;95.96;99999.55;1808104;79;21017;-81
2022/09/10 11:02:49;;;;;;;4.65;4.25;;;;;;;10.62;95.75;99999.70;1808831;79;21053;-82
2022/09/10 11:05:37;;;;;;;5.00;4.50;;;;;;;10.59;96.15;99994.73;1790814;79;21053;-82
2022/09/10 11:08:44;;;;;;;5.42;4.42;;;;;;;10.60;96.53;99994.58;1803816;79;21074;-83
2022/09/10 11:14:56;;;;;;;5.65;4.72;;;;;;;10.61;96.53;99991.41;1752089;80;21041;-87
2022/09/10 11:17:50;;;;;;;5.60;5.10;;;;;;;10.59;96.39;99989.41;1720333;79;20998;-90
2022/09/10 11:20:28;;;;;;;6.00;5.50;;;;;;;10.65;96.69;99990.59;1709171;79;20865;-88
2022/09/10 11:23:19;;;;;;;6.42;5.55;;;;;;;10.64;96.44;99979.11;1702649;82;21132;-90
2022/09/10 11:25:59;;;;;;;6.55;5.92;;;;;;;10.61;96.71;99975.47;1708321;83;21061;-89
2022/09/10 11:28:30;;;;;;;6.65;6.05;;;;;;;10.68;96.67;99967.66;1764228;81;21123;-88
2022/09/10 11:31:13;;;;;;;7.28;6.55;;;;;;;10.71;96.74;99962.04;1740551;81;20967;-84
2022/09/10 11:33:52;;;;;;;;;;;;;;;10.70;96.76;99962.55;1731019;81;21061;-89
2022/09/10 11:36:45;;;;;;;8.65;6.60;;;;;;;10.76;96.73;99957.90;1719828;81;21930;-88
2022/09/10 11:39:35;;;;;;;7.92;7.12;;;;;;;10.79;96.54;99956.22;1728029;83;21061;-89
2022/09/10 11:42:14;;;;;;;7.78;6.97;;;;;;;10.79;96.50;99946.92;1707729;83;21115;-88
2022/09/10 11:45:08;;;;;;;8.68;7.87;;;;;;;10.81;96.71;99942.27;1729645;83;20983;-87
2022/09/10 11:47:39;;;;;;;11.50;9.33;;;;;;;10.79;96.99;99948.25;1732311;80;21158;-87
2022/09/10 11:52:40;;;;;;;9.48;8.53;;;;;;;10.88;97.06;99943.79;1801274;79;28067;-86
2022/09/10 11:55:16;;;;;;;9.33;8.20;;;;;;;10.80;96.87;99937.97;1760852;81;20942;-86
2022/09/10 11:57:54;;;;;;;9.50;8.55;;;;;;;10.84;96.95;99934.99;1760973;79;21562;-86
2022/09/10 12:00:24;;;;;;;9.05;8.25;;;;;;;10.86;97.24;99936.98;1738656;81;21001;-87
2022/09/10 12:03:21;;;;;;;11.40;10.30;;;;;;;10.87;97.36;99943.44;1686780;85;21115;-88